createdAt,value
2018-02-24T00:00:40.457Z,36.73
2018-02-24T00:03:07.063Z,38.20
2018-02-24T00:05:33.678Z,37.77
2018-02-24T00:08:00.318Z,34.47
2018-02-24T00:10:26.915Z,36.80
2018-02-24T00:12:53.524Z,33.00
2018-02-24T00:15:20.128Z,38.00
2018-02-24T00:17:46.743Z,36.23
2018-02-24T00:20:13.356Z,40.40
2018-02-24T00:22:43.839Z,38.63
2018-02-24T00:25:10.439Z,39.70
2018-02-24T00:27:37.056Z,38.53
2018-02-24T00:30:03.678Z,40.67
2018-02-24T00:32:30.343Z,36.30
2018-02-24T00:34:56.969Z,39.87
2018-02-24T00:37:23.560Z,31.03
2018-02-24T00:39:50.175Z,34.63
2018-02-24T00:42:16.834Z,41.97
2018-02-24T00:44:43.407Z,36.93
2018-02-24T00:47:10.011Z,37.90
2018-02-24T00:49:36.628Z,40.30
2018-02-24T00:52:03.236Z,41.83
2018-02-24T00:54:29.841Z,32.47
2018-02-24T00:56:56.450Z,27.93
2018-02-24T00:59:23.089Z,33.23
2018-02-24T01:01:49.669Z,36.73
2018-02-24T01:04:16.280Z,44.03
2018-02-24T01:06:42.915Z,39.03
2018-02-24T01:09:09.543Z,37.40
2018-02-24T01:11:36.179Z,31.90
2018-02-24T01:14:02.782Z,33.83
2018-02-24T01:16:29.397Z,31.40
2018-02-24T01:18:55.996Z,33.57
2018-02-24T01:21:22.608Z,40.90
2018-02-24T01:23:49.281Z,38.17
2018-02-24T01:26:16.154Z,35.80
2018-02-24T01:28:42.734Z,40.53
2018-02-24T01:31:09.328Z,39.83
2018-02-24T01:33:35.942Z,36.33
2018-02-24T01:36:02.571Z,39.83
2018-02-24T01:38:29.196Z,41.93
2018-02-24T01:40:55.831Z,35.17
2018-02-24T01:43:22.440Z,32.43
2018-02-24T01:45:49.038Z,39.13
2018-02-24T01:48:15.690Z,42.07
2018-02-24T01:50:42.304Z,43.27
2018-02-24T01:53:08.933Z,39.60
2018-02-24T01:55:35.549Z,39.70
2018-02-24T01:58:02.139Z,43.00
2018-02-24T02:00:28.765Z,41.30
2018-02-24T02:02:55.395Z,32.47
2018-02-24T02:05:22.018Z,40.23
2018-02-24T02:07:48.645Z,47.17
2018-02-24T02:10:15.320Z,39.10
2018-02-24T02:12:42.202Z,36.00
2018-02-24T02:15:09.282Z,41.27
2018-02-24T02:17:35.925Z,42.00
2018-02-24T02:20:02.611Z,40.93
2018-02-24T02:22:29.303Z,37.57
2018-02-24T02:24:55.901Z,39.63
2018-02-24T02:27:22.513Z,43.10
2018-02-24T02:29:49.109Z,41.67
2018-02-24T02:32:15.758Z,41.80
2018-02-24T02:34:42.367Z,38.03
2018-02-24T02:37:08.993Z,40.23
2018-02-24T02:39:35.619Z,37.67
2018-02-24T02:42:02.209Z,40.13
2018-02-24T02:44:28.855Z,29.07
2018-02-24T02:46:55.854Z,38.43
2018-02-24T02:49:22.478Z,37.10
2018-02-24T02:51:49.081Z,45.53
2018-02-24T02:54:15.679Z,38.43
2018-02-24T02:56:42.296Z,33.77
2018-02-24T02:59:08.980Z,37.70
2018-02-24T03:01:35.581Z,40.70
2018-02-24T03:04:02.196Z,37.80
2018-02-24T03:06:28.782Z,40.50
2018-02-24T03:08:55.392Z,46.40
2018-02-24T03:11:21.988Z,34.57
2018-02-24T03:13:48.616Z,35.50
2018-02-24T03:16:15.220Z,35.53
2018-02-24T03:18:41.831Z,36.47
2018-02-24T03:21:08.420Z,27.77
2018-02-24T03:23:35.051Z,34.23
2018-02-24T03:26:01.656Z,33.77
2018-02-24T03:28:28.530Z,37.17
2018-02-24T03:30:55.140Z,38.17
2018-02-24T03:33:21.772Z,40.40
2018-02-24T03:35:48.389Z,47.13
2018-02-24T03:38:14.996Z,33.17
2018-02-24T03:40:41.628Z,44.33
2018-02-24T03:43:08.252Z,43.20
2018-02-24T03:45:34.864Z,38.80
2018-02-24T03:48:01.545Z,38.90
2018-02-24T03:50:28.141Z,36.93
2018-02-24T03:52:54.765Z,39.47
2018-02-24T03:55:21.409Z,42.13
2018-02-24T03:57:48.013Z,34.87
2018-02-24T04:00:14.649Z,42.13
2018-02-24T04:02:41.252Z,40.57
2018-02-24T04:05:07.856Z,48.20
2018-02-24T04:07:34.462Z,41.23
2018-02-24T04:10:01.092Z,41.60
2018-02-24T04:12:27.702Z,46.53
2018-02-24T04:14:54.396Z,37.40
2018-02-24T04:17:20.998Z,40.83
2018-02-24T04:19:47.638Z,37.00
2018-02-24T04:22:14.226Z,48.20
2018-02-24T04:24:40.823Z,38.13
2018-02-24T04:27:07.454Z,43.13
2018-02-24T04:29:34.137Z,43.63
2018-02-24T04:32:00.870Z,39.23
2018-02-24T04:34:27.452Z,37.70
2018-02-24T04:36:54.084Z,45.50
2018-02-24T04:39:20.721Z,39.87
2018-02-24T04:41:47.358Z,43.93
2018-02-24T04:44:13.950Z,40.40
2018-02-24T04:46:40.573Z,51.00
2018-02-24T04:49:07.203Z,42.73
2018-02-24T04:51:33.933Z,47.00
2018-02-24T04:54:00.688Z,59.60
2018-02-24T04:56:27.296Z,43.43
2018-02-24T04:58:53.964Z,47.10
2018-02-24T05:01:20.572Z,51.13
2018-02-24T05:03:48.048Z,42.90
2018-02-24T05:06:14.664Z,49.30
2018-02-24T05:08:41.293Z,44.67
2018-02-24T05:11:07.892Z,45.20
2018-02-24T05:13:34.512Z,52.73
2018-02-24T05:16:01.134Z,46.17
2018-02-24T05:18:27.749Z,51.20
2018-02-24T05:20:54.361Z,43.83
2018-02-24T05:23:20.967Z,48.83
2018-02-24T05:25:47.575Z,54.33
2018-02-24T05:28:14.187Z,54.07
2018-02-24T05:30:40.796Z,43.67
2018-02-24T05:33:07.400Z,49.47
2018-02-24T05:35:34.054Z,52.47
2018-02-24T05:38:00.654Z,49.47
2018-02-24T05:40:27.299Z,54.20
2018-02-24T05:42:53.905Z,48.53
2018-02-24T05:45:20.504Z,52.57
2018-02-24T05:47:47.110Z,48.47
2018-02-24T05:50:13.764Z,50.20
2018-02-24T05:52:40.355Z,52.57
2018-02-24T05:55:06.961Z,49.00
2018-02-24T05:57:33.576Z,50.30
2018-02-24T06:00:00.243Z,50.80
2018-02-24T06:02:26.840Z,53.27
2018-02-24T06:04:53.524Z,51.17
2018-02-24T06:07:20.128Z,44.43
2018-02-24T06:09:46.767Z,53.43
2018-02-24T06:12:13.422Z,61.20
2018-02-24T06:14:40.030Z,54.00
2018-02-24T06:17:06.658Z,43.77
2018-02-24T06:19:33.262Z,56.17
2018-02-24T06:21:59.858Z,55.50
2018-02-24T06:24:26.484Z,47.57
2018-02-24T06:26:53.116Z,52.50
2018-02-24T06:29:19.721Z,46.27
2018-02-24T06:31:46.343Z,50.73
2018-02-24T06:34:12.992Z,47.00
2018-02-24T06:36:39.624Z,46.20
2018-02-24T06:39:06.285Z,51.30
2018-02-24T06:41:32.906Z,41.90
2018-02-24T06:43:59.569Z,47.57
2018-02-24T06:46:26.198Z,52.27
2018-02-24T06:48:52.833Z,48.73
2018-02-24T06:51:19.460Z,54.60
2018-02-24T06:53:46.798Z,46.50
2018-02-24T06:56:13.385Z,54.90
2018-02-24T06:58:40.037Z,43.80
2018-02-24T07:01:06.644Z,44.50
2018-02-24T07:03:33.490Z,44.70
2018-02-24T07:06:00.123Z,55.97
2018-02-24T07:08:26.764Z,34.53
2018-02-24T07:10:53.411Z,47.43
2018-02-24T07:13:20.006Z,46.87
2018-02-24T07:15:46.649Z,38.97
2018-02-24T07:18:13.290Z,45.67
2018-02-24T07:20:40.093Z,45.00
2018-02-24T07:23:06.766Z,52.47
2018-02-24T07:25:33.413Z,49.27
2018-02-24T07:28:00.042Z,56.53
2018-02-24T07:30:26.670Z,51.70
2018-02-24T07:32:53.349Z,50.70
2018-02-24T07:35:19.993Z,56.40
2018-02-24T07:37:46.625Z,47.43
2018-02-24T07:40:13.253Z,50.80
2018-02-24T07:42:40.045Z,48.67
2018-02-24T07:45:06.644Z,38.47
2018-02-24T07:47:33.303Z,41.03
2018-02-24T07:50:01.030Z,45.73
2018-02-24T07:52:27.794Z,56.53
2018-02-24T07:54:54.396Z,35.87
2018-02-24T07:57:21.011Z,39.47
2018-02-24T07:59:48.536Z,45.93
2018-02-24T08:02:15.150Z,47.00
2018-02-24T08:04:41.817Z,62.03
2018-02-24T08:07:08.406Z,43.90
2018-02-24T08:09:35.205Z,39.23
2018-02-24T08:12:01.813Z,31.17
2018-02-24T08:14:28.455Z,38.77
2018-02-24T08:16:55.116Z,43.40
2018-02-24T08:19:21.797Z,41.77
2018-02-24T08:21:48.398Z,43.00
2018-02-24T08:24:15.061Z,38.10
2018-02-24T08:26:41.689Z,38.03
2018-02-24T08:29:08.377Z,43.93
2018-02-24T08:31:35.077Z,38.80
2018-02-24T08:34:01.786Z,43.50
2018-02-24T08:36:28.524Z,40.40
2018-02-24T08:38:55.192Z,32.87
2018-02-24T08:41:21.872Z,33.40
2018-02-24T08:43:48.558Z,36.20
2018-02-24T08:46:15.202Z,34.00
2018-02-24T08:48:41.868Z,32.30
2018-02-24T08:51:08.786Z,26.53
2018-02-24T08:53:35.398Z,29.40
2018-02-24T08:56:02.094Z,30.83
2018-02-24T08:58:28.712Z,33.03
2018-02-24T09:00:55.341Z,26.90
2018-02-24T09:03:22.003Z,26.57
2018-02-24T09:05:48.652Z,28.93
2018-02-24T09:08:15.281Z,27.90
2018-02-24T09:10:41.894Z,31.47
2018-02-24T09:13:08.537Z,29.80
2018-02-24T09:15:35.154Z,22.30
2018-02-24T09:18:01.762Z,31.57
2018-02-24T09:20:28.635Z,24.50
2018-02-24T09:22:55.257Z,21.37
2018-02-24T09:25:21.870Z,17.07
2018-02-24T09:27:48.560Z,20.93
2018-02-24T09:30:15.176Z,17.17
2018-02-24T09:32:41.797Z,17.17
2018-02-24T09:35:08.428Z,20.03
2018-02-24T09:37:35.049Z,16.23
2018-02-24T09:40:01.648Z,20.80
2018-02-24T09:42:28.328Z,20.40
2018-02-24T09:44:54.976Z,13.90
2018-02-24T09:47:21.578Z,18.93
2018-02-24T09:49:48.211Z,17.00
2018-02-24T09:52:14.832Z,14.20
2018-02-24T09:54:41.436Z,12.40
2018-02-24T09:57:08.062Z,15.03
2018-02-24T09:59:34.728Z,17.30
2018-02-24T10:02:01.432Z,15.67
2018-02-24T10:04:28.046Z,21.17
2018-02-24T10:06:54.726Z,17.37
2018-02-24T10:09:21.354Z,14.43
2018-02-24T10:11:47.977Z,15.20
2018-02-24T10:14:14.570Z,16.17
2018-02-24T10:16:41.177Z,13.60
2018-02-24T10:19:07.809Z,7.73
2018-02-24T10:21:34.448Z,14.93
2018-02-24T10:24:01.063Z,10.07
2018-02-24T10:26:27.687Z,7.33
2018-02-24T10:28:54.307Z,8.23
2018-02-24T10:31:20.897Z,5.10
2018-02-24T10:33:47.520Z,6.13
2018-02-24T10:36:14.108Z,5.07
2018-02-24T10:38:40.709Z,6.73
2018-02-24T10:41:07.362Z,6.63
2018-02-24T10:43:33.991Z,7.07
2018-02-24T10:46:00.594Z,6.83
2018-02-24T10:48:27.196Z,5.87
2018-02-24T10:50:53.845Z,6.80
2018-02-24T10:53:20.446Z,7.43
2018-02-24T10:55:47.076Z,6.23
2018-02-24T10:58:13.702Z,11.13
2018-02-24T11:00:40.339Z,6.43
2018-02-24T11:03:06.938Z,7.73
2018-02-24T11:05:33.578Z,5.70
2018-02-24T11:08:00.187Z,9.47
2018-02-24T11:10:26.828Z,7.13
2018-02-24T11:12:53.405Z,6.70
2018-02-24T11:15:20.146Z,8.90
2018-02-24T11:17:46.748Z,11.53
2018-02-24T11:20:13.398Z,6.73
2018-02-24T11:22:40.009Z,7.10
2018-02-24T11:25:06.611Z,6.90
2018-02-24T11:27:33.207Z,6.20
2018-02-24T11:30:00.103Z,9.20
2018-02-24T11:32:26.791Z,7.27
2018-02-24T11:34:53.399Z,7.60
2018-02-24T11:37:20.300Z,6.20
2018-02-24T11:39:46.876Z,13.40
2018-02-24T11:42:13.720Z,7.67
2018-02-24T11:44:40.330Z,6.97
2018-02-24T11:47:06.978Z,6.87
2018-02-24T11:49:33.577Z,7.93
2018-02-24T11:52:00.195Z,7.90
2018-02-24T11:54:26.912Z,7.30
2018-02-24T11:56:53.501Z,6.80
2018-02-24T11:59:20.127Z,8.63
2018-02-24T12:01:46.718Z,7.70
2018-02-24T12:04:13.448Z,7.30
2018-02-24T12:06:40.208Z,22.10
2018-02-24T12:09:06.842Z,8.17
2018-02-24T12:11:33.469Z,8.93
2018-02-24T12:14:00.130Z,10.13
2018-02-24T12:16:26.721Z,8.10
2018-02-24T12:18:53.327Z,9.73
2018-02-24T12:21:19.992Z,10.00
2018-02-24T12:23:46.604Z,7.77
2018-02-24T12:26:13.228Z,9.77
2018-02-24T12:28:39.879Z,11.80
2018-02-24T12:31:06.488Z,9.20
2018-02-24T12:33:33.074Z,11.53
2018-02-24T12:35:59.685Z,11.00
2018-02-24T12:38:26.447Z,9.10
2018-02-24T12:40:53.186Z,10.90
2018-02-24T12:43:19.772Z,11.10
2018-02-24T12:45:46.411Z,10.50
2018-02-24T12:48:12.985Z,7.17
2018-02-24T12:50:39.596Z,9.73
2018-02-24T12:53:06.193Z,9.67
2018-02-24T12:55:32.809Z,10.17
2018-02-24T12:57:59.432Z,11.80
2018-02-24T13:00:26.134Z,8.87
2018-02-24T13:02:52.819Z,13.17
2018-02-24T13:05:19.415Z,9.23
2018-02-24T13:07:46.119Z,8.73
2018-02-24T13:10:12.703Z,8.27
2018-02-24T13:12:39.314Z,8.00
2018-02-24T13:15:06.074Z,9.87
2018-02-24T13:17:32.705Z,8.30
2018-02-24T13:19:59.338Z,9.63
2018-02-24T13:22:25.933Z,8.47
2018-02-24T13:24:52.615Z,9.37
2018-02-24T13:27:19.246Z,8.77
2018-02-24T13:29:45.851Z,7.80
2018-02-24T13:32:12.478Z,7.87
2018-02-24T13:34:39.048Z,7.60
2018-02-24T13:37:05.706Z,8.43
2018-02-24T13:39:32.360Z,7.57
2018-02-24T13:41:58.955Z,7.70
2018-02-24T13:44:25.582Z,7.33
2018-02-24T13:46:52.210Z,7.30
2018-02-24T13:49:18.862Z,8.97
2018-02-24T13:51:45.524Z,7.67
2018-02-24T13:54:12.139Z,10.80
2018-02-24T15:18:35.142Z,11.23
2018-02-24T15:21:01.766Z,9.13
2018-02-24T15:23:28.391Z,9.60
2018-02-24T15:25:55.014Z,11.83
2018-02-24T15:28:21.656Z,9.43
2018-02-24T15:30:48.221Z,17.50
2018-02-24T15:33:15.720Z,14.90
2018-02-24T15:35:42.355Z,9.87
2018-02-24T15:38:08.962Z,8.13
2018-02-24T15:40:35.597Z,8.80
2018-02-24T15:43:02.342Z,12.30
2018-02-24T15:45:28.962Z,8.77
2018-02-24T15:47:55.574Z,9.50
2018-02-24T15:50:22.206Z,13.00
2018-02-24T15:52:48.895Z,15.90
2018-02-24T15:55:15.542Z,10.30
2018-02-24T15:57:43.498Z,13.13
2018-02-24T16:00:10.129Z,7.27
2018-02-24T16:02:36.720Z,19.93
2018-02-24T16:05:03.374Z,12.43
2018-02-24T16:07:30.122Z,8.37
2018-02-24T16:09:56.766Z,9.23
2018-02-24T16:12:23.379Z,10.13
2018-02-24T16:14:50.140Z,8.63
2018-02-24T16:17:16.768Z,10.80
2018-02-24T16:19:43.549Z,11.47
2018-02-24T16:22:10.172Z,11.10
2018-02-24T16:24:36.871Z,9.17
2018-02-24T16:27:03.537Z,9.33
2018-02-24T16:29:30.266Z,9.47
2018-02-24T16:31:56.861Z,8.57
2018-02-24T16:34:23.579Z,8.83
2018-02-24T16:36:50.230Z,9.20
2018-02-24T16:39:16.853Z,9.10
2018-02-24T16:41:43.630Z,10.80
2018-02-24T16:44:10.325Z,9.40
2018-02-24T16:46:36.985Z,8.83
2018-02-24T16:49:03.616Z,9.70
2018-02-24T16:51:30.242Z,10.10
2018-02-24T16:53:56.840Z,9.80
2018-02-24T16:56:23.780Z,14.50
2018-02-24T16:58:50.379Z,9.63
2018-02-24T17:01:17.010Z,8.93
2018-02-24T17:03:43.761Z,7.90
2018-02-24T17:06:10.903Z,7.43
2018-02-24T17:08:37.608Z,18.90
2018-02-24T17:11:04.217Z,6.07
2018-02-24T17:13:30.833Z,6.50
2018-02-24T17:15:57.488Z,8.10
2018-02-24T17:18:24.121Z,7.17
2018-02-24T17:20:50.773Z,9.33
2018-02-24T17:23:17.404Z,6.50
2018-02-24T17:25:44.137Z,5.57
2018-02-24T17:28:10.797Z,5.27
2018-02-24T17:30:37.449Z,7.43
2018-02-24T17:33:04.016Z,6.67
2018-02-24T17:35:30.661Z,6.63
2018-02-24T17:37:57.297Z,5.70
2018-02-24T17:40:23.901Z,6.50
2018-02-24T17:42:50.539Z,9.90
2018-02-24T17:45:17.178Z,6.87
2018-02-24T17:47:44.039Z,5.90
2018-02-24T17:50:10.700Z,6.83
2018-02-24T17:52:37.374Z,5.50
2018-02-24T17:55:04.068Z,5.07
2018-02-24T17:57:30.722Z,4.00
2018-02-24T17:59:57.309Z,4.23
2018-02-24T18:02:24.030Z,3.90
2018-02-24T18:04:50.614Z,7.27
2018-02-24T18:07:17.264Z,3.77
2018-02-24T18:09:44.021Z,4.03
2018-02-24T18:12:10.792Z,3.93
2018-02-24T18:14:37.367Z,3.87
2018-02-24T18:17:04.004Z,5.03
2018-02-24T18:19:30.639Z,3.73
2018-02-24T18:21:57.287Z,3.80
2018-02-24T18:24:24.019Z,4.83
2018-02-24T18:26:50.630Z,4.53
2018-02-24T18:29:17.253Z,3.53
2018-02-24T18:31:43.902Z,4.43
2018-02-24T18:34:10.488Z,4.30
2018-02-24T18:36:37.112Z,2.50
2018-02-24T18:39:04.228Z,3.60
2018-02-24T18:41:30.820Z,3.10
2018-02-24T18:43:57.803Z,3.03
2018-02-24T18:46:24.388Z,2.97
2018-02-24T18:48:51.029Z,2.97
2018-02-24T18:51:17.649Z,2.47
2018-02-24T18:53:44.347Z,4.03
2018-02-24T18:56:10.994Z,2.30
2018-02-24T18:58:37.627Z,2.30
2018-02-24T19:01:04.307Z,2.47
2018-02-24T19:03:31.004Z,2.20
2018-02-24T19:05:57.607Z,2.33
2018-02-24T19:08:24.250Z,3.47
2018-02-24T19:10:50.846Z,3.07
2018-02-24T19:13:17.497Z,2.33
2018-02-24T19:15:44.307Z,3.17
2018-02-24T19:18:11.214Z,4.80
2018-02-24T19:20:38.005Z,2.70
2018-02-24T19:23:04.853Z,29.57
2018-02-24T19:25:31.470Z,2.70
2018-02-24T19:27:58.315Z,2.40
2018-02-24T19:30:25.058Z,4.40
2018-02-24T19:32:51.733Z,2.97
2018-02-24T19:35:18.493Z,6.83
2018-02-24T19:37:45.313Z,6.87
2018-02-24T19:40:11.994Z,2.77
2018-02-24T19:42:38.841Z,2.83
2018-02-24T19:45:06.042Z,2.03
2018-02-24T19:47:33.707Z,3.00
2018-02-24T19:50:00.977Z,2.53
2018-02-24T19:52:31.830Z,3.90
2018-02-24T19:54:59.609Z,2.47
2018-02-24T19:57:27.111Z,2.10
2018-02-24T19:59:54.175Z,1.70
2018-02-24T20:02:20.962Z,2.73
2018-02-24T20:04:47.936Z,2.50
2018-02-24T20:07:14.568Z,2.57
2018-02-24T20:09:41.160Z,2.80
2018-02-24T20:12:07.780Z,2.43
2018-02-24T20:14:34.485Z,2.03
2018-02-24T20:17:01.200Z,2.10
2018-02-24T20:19:27.819Z,2.47
2018-02-24T20:21:54.426Z,3.90
2018-02-24T20:24:21.042Z,2.60
2018-02-24T20:26:47.987Z,2.27
2018-02-24T20:29:14.603Z,2.10
2018-02-24T20:31:41.195Z,4.70
2018-02-24T20:34:07.848Z,3.73
2018-02-24T20:36:34.489Z,1.90
2018-02-24T20:39:01.096Z,7.90
2018-02-24T20:41:27.799Z,2.07
2018-02-24T20:43:54.444Z,2.33
2018-02-24T20:46:21.200Z,2.53
2018-02-24T20:48:48.033Z,2.57
2018-02-24T20:51:14.734Z,2.30
2018-02-24T20:53:41.425Z,1.80
2018-02-24T20:56:08.274Z,4.33
2018-02-24T20:58:35.112Z,2.80
2018-02-24T21:01:01.738Z,3.07
2018-02-24T21:03:28.366Z,3.23
2018-02-24T21:05:55.014Z,3.27
2018-02-24T21:08:21.635Z,2.53
2018-02-24T21:10:48.406Z,2.70
2018-02-24T21:13:15.034Z,2.10
2018-02-24T21:15:41.728Z,3.53
2018-02-24T21:18:08.349Z,3.00
2018-02-24T21:20:35.033Z,2.20
2018-02-24T21:23:01.639Z,2.33
2018-02-24T21:25:28.561Z,1.90
2018-02-24T21:27:55.144Z,2.67
2018-02-24T21:30:21.767Z,2.60
2018-02-24T21:32:48.451Z,3.77
2018-02-24T21:35:15.078Z,5.33
2018-02-24T21:37:41.702Z,2.70
2018-02-24T21:40:08.312Z,2.17
2018-02-24T21:42:34.941Z,2.83
2018-02-24T21:45:01.576Z,2.70
2018-02-24T21:47:28.236Z,2.87
2018-02-24T21:49:54.940Z,2.70
2018-02-24T21:52:21.637Z,2.40
2018-02-24T21:54:48.369Z,2.73
2018-02-24T21:57:14.993Z,2.97
2018-02-24T21:59:41.620Z,2.30
2018-02-24T22:02:08.246Z,2.13
2018-02-24T22:04:34.887Z,4.13
2018-02-24T22:07:01.529Z,2.50
2018-02-24T22:09:28.139Z,4.03
2018-02-24T22:11:54.753Z,6.30
2018-02-24T22:14:21.369Z,3.93
2018-02-24T22:16:48.142Z,2.87
2018-02-24T22:19:14.745Z,3.60
2018-02-24T22:21:41.327Z,3.30
2018-02-24T22:24:07.999Z,2.83
2018-02-24T22:26:34.592Z,3.83
2018-02-24T22:29:01.208Z,2.77
2018-02-24T22:31:27.952Z,3.00
2018-02-24T22:33:54.589Z,7.37
2018-02-24T22:36:21.189Z,3.57
2018-02-24T22:38:47.795Z,3.27
2018-02-24T22:41:14.962Z,3.83
2018-02-24T22:43:41.599Z,8.53
2018-02-24T22:46:08.193Z,4.30
2018-02-24T22:48:40.652Z,4.37
2018-02-24T22:51:07.296Z,4.90
2018-02-24T22:53:33.879Z,3.87
2018-02-24T22:56:00.527Z,4.10
2018-02-24T22:58:27.374Z,3.80
2018-02-24T23:00:53.970Z,3.87
2018-02-24T23:03:20.627Z,5.80
2018-02-24T23:05:47.274Z,3.70
2018-02-24T23:08:13.905Z,3.33
2018-02-24T23:10:40.556Z,5.00
2018-02-24T23:13:07.316Z,3.30
2018-02-24T23:15:33.943Z,4.60
2018-02-24T23:18:00.582Z,4.27
2018-02-24T23:20:27.232Z,4.50
2018-02-24T23:22:53.805Z,3.90
2018-02-24T23:25:20.414Z,4.90
2018-02-24T23:27:47.044Z,3.50
2018-02-24T23:30:13.664Z,4.70
2018-02-24T23:32:40.287Z,8.10
2018-02-24T23:35:06.894Z,4.63
2018-02-24T23:37:33.608Z,4.10
2018-02-24T23:40:00.228Z,7.00
2018-02-24T23:42:26.860Z,4.37
2018-02-24T23:44:53.456Z,10.00
2018-02-24T23:47:20.157Z,6.33
2018-02-24T23:49:46.742Z,4.93
2018-02-24T23:52:13.358Z,3.83
2018-02-24T23:54:39.947Z,8.70
2018-02-24T23:57:06.589Z,7.80
2018-02-24T23:59:33.189Z,3.73
